Time;durP1;ratioP1;P1;durP2;ratioP2;P2;SDS_P1;SDS_P2;PMS_P1;PMS_P2;Temp;Humidity;BMP_temperature;BMP_pressure;BME280_temperature;BME280_humidity;BME280_pressure;Samples;Min_cycle;Max_cycle;Signal;HPM_P1;HPM_P2
2022/03/26 00:00:16;;;;;;;63.10;38.35;;;;;;;;;;5029637;28;20092;-85
2022/03/26 00:02:43;;;;;;;67.18;37.60;;;;;;;;;;5030249;28;20049;-85
2022/03/26 00:05:10;;;;;;;63.28;36.60;;;;;;;;;;5046564;28;20081;-85
2022/03/26 00:07:36;;;;;;;58.63;34.95;;;;;;;;;;5029869;28;20045;-85
2022/03/26 00:10:05;;;;;;;58.00;35.85;;;;;;;;;;5046341;28;20038;-85
2022/03/26 00:12:32;;;;;;;60.83;37.67;;;;;;;;;;5046620;28;20382;-85
2022/03/26 00:15:09;;;;;;;60.05;35.88;;;;;;;;;;5046331;28;20052;-85
2022/03/26 00:17:35;;;;;;;57.38;34.03;;;;;;;;;;5029315;28;20076;-85
2022/03/26 00:20:01;;;;;;;54.20;32.03;;;;;;;;;;5029221;28;20041;-85
2022/03/26 00:22:27;;;;;;;47.45;29.90;;;;;;;;;;5048851;28;20515;-85
2022/03/26 00:24:54;;;;;;;46.03;28.70;;;;;;;;;;5049161;28;20048;-85
2022/03/26 00:27:20;;;;;;;50.03;27.42;;;;;;;;;;5032402;28;20041;-85
2022/03/26 00:29:46;;;;;;;46.13;26.67;;;;;;;;;;5029406;28;20525;-85
2022/03/26 00:32:12;;;;;;;44.70;27.25;;;;;;;;;;5022597;28;20382;-85
2022/03/26 00:34:39;;;;;;;45.22;27.75;;;;;;;;;;5032341;28;20366;-85
2022/03/26 00:37:05;;;;;;;49.67;30.98;;;;;;;;;;5048987;28;20152;-85
2022/03/26 00:39:31;;;;;;;47.45;28.92;;;;;;;;;;5028892;28;20092;-85
2022/03/26 00:41:57;;;;;;;44.33;27.13;;;;;;;;;;5022089;28;20382;-85
2022/03/26 00:44:24;;;;;;;49.08;27.95;;;;;;;;;;5015589;28;20064;-85
2022/03/26 00:46:50;;;;;;;49.15;27.63;;;;;;;;;;5012073;28;20054;-85
2022/03/26 00:49:17;;;;;;;51.53;32.00;;;;;;;;;;5017549;28;20053;-85
2022/03/26 00:51:43;;;;;;;50.33;29.17;;;;;;;;;;5015518;28;20037;-85
2022/03/26 00:54:10;;;;;;;50.92;30.02;;;;;;;;;;5015853;28;20040;-85
2022/03/26 00:56:37;;;;;;;52.22;31.02;;;;;;;;;;5015583;28;20464;-85
2022/03/26 00:59:04;;;;;;;59.55;35.40;;;;;;;;;;5015483;28;20040;-85
2022/03/26 01:01:31;;;;;;;55.67;33.65;;;;;;;;;;5014549;28;20052;-85
2022/03/26 01:03:58;;;;;;;62.90;33.53;;;;;;;;;;5030970;28;20050;-85
2022/03/26 01:06:24;;;;;;;60.55;35.40;;;;;;;;;;5031304;28;20069;-85
2022/03/26 01:08:50;;;;;;;62.90;37.50;;;;;;;;;;5031507;28;20045;-85
2022/03/26 01:11:17;;;;;;;63.92;36.03;;;;;;;;;;5031201;28;20489;-85
2022/03/26 01:13:44;;;;;;;69.55;38.47;;;;;;;;;;5047480;28;20044;-85
2022/03/26 01:16:12;;;;;;;69.65;40.90;;;;;;;;;;5011135;28;20490;-85
2022/03/26 01:18:39;;;;;;;71.65;40.53;;;;;;;;;;5011735;28;20127;-85
2022/03/26 01:21:05;;;;;;;67.28;39.20;;;;;;;;;;5019062;28;20050;-84
2022/03/26 01:23:31;;;;;;;73.85;41.05;;;;;;;;;;5014560;28;20069;-85
2022/03/26 01:25:58;;;;;;;72.93;43.47;;;;;;;;;;5011476;28;20060;-85
2022/03/26 01:28:24;;;;;;;77.65;44.20;;;;;;;;;;5030502;28;20513;-84
2022/03/26 01:31:19;;;;;;;83.07;47.88;;;;;;;;;;5031087;28;20417;-85
2022/03/26 01:33:47;;;;;;;79.70;45.47;;;;;;;;;;5046604;28;20501;-84
2022/03/26 01:36:13;;;;;;;77.10;43.35;;;;;;;;;;5031170;28;20045;-85
2022/03/26 01:38:39;;;;;;;77.65;43.80;;;;;;;;;;5011793;28;20110;-84
2022/03/26 01:41:06;;;;;;;78.05;43.70;;;;;;;;;;5011117;28;20048;-84
2022/03/26 01:43:32;;;;;;;79.72;43.85;;;;;;;;;;5025580;28;20038;-85
2022/03/26 01:45:58;;;;;;;83.88;47.35;;;;;;;;;;5014396;28;20556;-84
2022/03/26 01:48:24;;;;;;;90.50;48.13;;;;;;;;;;5030971;28;20448;-85
2022/03/26 01:50:50;;;;;;;85.85;48.10;;;;;;;;;;5014620;28;20083;-84
2022/03/26 01:53:17;;;;;;;81.07;46.15;;;;;;;;;;5031050;28;20033;-84
2022/03/26 01:55:43;;;;;;;82.70;47.40;;;;;;;;;;5031516;28;20588;-84
2022/03/26 01:58:09;;;;;;;75.70;43.10;;;;;;;;;;5031574;28;20040;-84
2022/03/26 02:00:36;;;;;;;86.68;47.00;;;;;;;;;;5031650;28;20041;-84
2022/03/26 02:03:03;;;;;;;78.28;45.53;;;;;;;;;;5031490;28;20550;-84
2022/03/26 02:05:29;;;;;;;84.53;47.45;;;;;;;;;;5031243;28;20497;-84
2022/03/26 02:07:55;;;;;;;84.75;47.60;;;;;;;;;;5048294;28;20496;-84
2022/03/26 02:10:22;;;;;;;82.10;47.63;;;;;;;;;;5031219;28;20045;-84
2022/03/26 02:12:48;;;;;;;87.82;47.50;;;;;;;;;;5031774;28;20523;-84
2022/03/26 02:15:15;;;;;;;85.60;47.20;;;;;;;;;;5014305;28;20043;-84
2022/03/26 02:17:42;;;;;;;88.47;49.05;;;;;;;;;;5014696;28;20038;-84
2022/03/26 02:20:09;;;;;;;84.82;49.53;;;;;;;;;;5047908;28;20124;-84
2022/03/26 02:22:37;;;;;;;87.75;49.10;;;;;;;;;;5031438;28;20050;-84
2022/03/26 02:25:03;;;;;;;80.95;47.35;;;;;;;;;;5030559;28;20038;-85
2022/03/26 02:27:30;;;;;;;74.90;45.85;;;;;;;;;;5030630;28;20037;-84
2022/03/26 02:29:56;;;;;;;88.55;48.17;;;;;;;;;;5010590;28;20141;-84
2022/03/26 02:32:23;;;;;;;90.63;48.38;;;;;;;;;;5022966;28;20103;-84
2022/03/26 02:34:50;;;;;;;90.30;49.97;;;;;;;;;;5014059;28;20120;-84
2022/03/26 02:37:17;;;;;;;95.13;51.13;;;;;;;;;;5014350;28;20049;-84
2022/03/26 02:39:44;;;;;;;96.47;53.70;;;;;;;;;;5030246;28;20432;-84
2022/03/26 02:42:10;;;;;;;93.95;50.30;;;;;;;;;;5018097;28;20193;-84
2022/03/26 02:44:36;;;;;;;104.30;56.15;;;;;;;;;;5010321;28;20057;-84
2022/03/26 02:47:02;;;;;;;94.30;52.00;;;;;;;;;;5013371;28;20048;-84
2022/03/26 02:49:28;;;;;;;102.55;53.83;;;;;;;;;;5009879;28;20045;-84
2022/03/26 02:51:55;;;;;;;97.10;52.17;;;;;;;;;;5020205;28;20091;-84
2022/03/26 02:54:21;;;;;;;90.38;48.85;;;;;;;;;;5013636;28;20033;-84
2022/03/26 02:56:51;;;;;;;91.97;50.50;;;;;;;;;;5029349;28;20034;-84
2022/03/26 02:59:18;;;;;;;91.93;50.03;;;;;;;;;;5046023;28;20044;-84
2022/03/26 03:02:00;;;;;;;92.88;50.17;;;;;;;;;;5029580;28;20440;-84
2022/03/26 03:04:26;;;;;;;90.07;49.58;;;;;;;;;;5045870;28;20700;-84
2022/03/26 03:06:52;;;;;;;97.63;50.33;;;;;;;;;;5012946;28;20041;-84
2022/03/26 03:09:19;;;;;;;91.40;49.42;;;;;;;;;;5029288;28;20477;-84
2022/03/26 03:11:45;;;;;;;94.45;51.10;;;;;;;;;;5045462;28;20128;-84
2022/03/26 03:14:11;;;;;;;106.82;54.85;;;;;;;;;;5029304;28;20127;-84
2022/03/26 03:16:38;;;;;;;104.70;54.92;;;;;;;;;;4996938;28;20037;-84
2022/03/26 03:19:05;;;;;;;112.18;57.95;;;;;;;;;;5028637;28;20041;-85
2022/03/26 03:21:31;;;;;;;101.38;53.95;;;;;;;;;;5025549;28;20052;-84
2022/03/26 03:23:57;;;;;;;107.00;55.55;;;;;;;;;;5009086;28;20042;-84
2022/03/26 03:26:23;;;;;;;106.32;54.22;;;;;;;;;;5009388;28;20389;-84
2022/03/26 03:28:49;;;;;;;95.03;51.40;;;;;;;;;;5015753;28;20132;-84
2022/03/26 03:31:16;;;;;;;94.70;51.05;;;;;;;;;;5012246;28;20046;-84
2022/03/26 03:33:42;;;;;;;96.25;51.80;;;;;;;;;;5012165;28;20045;-84
2022/03/26 03:36:08;;;;;;;97.97;53.15;;;;;;;;;;5045595;28;20041;-84
2022/03/26 03:38:34;;;;;;;103.88;53.25;;;;;;;;;;5029336;28;20042;-84
2022/03/26 03:41:01;;;;;;;95.38;50.83;;;;;;;;;;5012357;28;20068;-84
2022/03/26 03:43:27;;;;;;;107.53;53.80;;;;;;;;;;5029254;28;20106;-84
2022/03/26 03:45:53;;;;;;;107.45;55.25;;;;;;;;;;5044581;28;20045;-84
2022/03/26 03:48:19;;;;;;;109.75;55.33;;;;;;;;;;5045998;28;20493;-84
2022/03/26 03:50:47;;;;;;;112.22;57.58;;;;;;;;;;5029215;28;20394;-84
2022/03/26 03:53:15;;;;;;;114.50;60.60;;;;;;;;;;5045510;28;20041;-84
2022/03/26 03:55:41;;;;;;;105.82;57.65;;;;;;;;;;5029376;28;20033;-84
2022/03/26 03:58:07;;;;;;;108.15;54.92;;;;;;;;;;5049092;28;20087;-84
2022/03/26 04:00:33;;;;;;;100.82;53.30;;;;;;;;;;5032291;28;20046;-84
2022/03/26 04:03:00;;;;;;;106.00;54.72;;;;;;;;;;5032035;28;20051;-84
2022/03/26 04:05:26;;;;;;;104.75;54.80;;;;;;;;;;5031968;28;20045;-84
2022/03/26 04:07:53;;;;;;;97.85;51.75;;;;;;;;;;5016061;28;20044;-84
2022/03/26 04:10:19;;;;;;;108.18;53.72;;;;;;;;;;5015325;28;20049;-84
2022/03/26 04:12:45;;;;;;;107.53;54.45;;;;;;;;;;5011953;28;20403;-84
2022/03/26 04:15:12;;;;;;;102.80;53.25;;;;;;;;;;5028454;28;20096;-84
2022/03/26 04:17:42;;;;;;;101.45;52.05;;;;;;;;;;5048181;28;20118;-84
2022/03/26 04:20:10;;;;;;;104.80;54.75;;;;;;;;;;5014934;28;20033;-84
2022/03/26 04:22:39;;;;;;;105.50;52.60;;;;;;;;;;5031491;28;20052;-85
2022/03/26 04:25:06;;;;;;;99.03;52.28;;;;;;;;;;5014807;28;20168;-84
2022/03/26 04:27:32;;;;;;;110.60;56.05;;;;;;;;;;5031428;28;20041;-84
2022/03/26 04:29:58;;;;;;;107.63;55.65;;;;;;;;;;5030977;28;20140;-84
2022/03/26 04:32:25;;;;;;;99.20;53.22;;;;;;;;;;5048033;28;20071;-84
2022/03/26 04:34:52;;;;;;;88.18;45.30;;;;;;;;;;5031257;28;20068;-84
2022/03/26 04:37:18;;;;;;;87.90;44.95;;;;;;;;;;5031191;28;20052;-84
2022/03/26 04:39:51;;;;;;;91.13;50.92;;;;;;;;;;5031296;28;20037;-84
2022/03/26 04:42:17;;;;;;;96.63;49.78;;;;;;;;;;5014649;28;20041;-84
2022/03/26 04:44:43;;;;;;;113.25;57.00;;;;;;;;;;5030549;28;20045;-84
2022/03/26 04:47:10;;;;;;;113.53;59.80;;;;;;;;;;5031026;28;20041;-83
2022/03/26 04:49:36;;;;;;;114.00;57.95;;;;;;;;;;5014552;28;20045;-84
2022/03/26 04:52:02;;;;;;;124.40;62.75;;;;;;;;;;5031708;28;20041;-84
2022/03/26 04:54:28;;;;;;;126.47;61.58;;;;;;;;;;5031237;28;20560;-83
2022/03/26 04:56:54;;;;;;;128.48;63.42;;;;;;;;;;5010458;28;20120;-83
2022/03/26 04:59:20;;;;;;;123.60;60.72;;;;;;;;;;5031435;28;20444;-84
2022/03/26 05:01:57;;;;;;;125.38;62.90;;;;;;;;;;5030273;28;20429;-84
2022/03/26 05:04:23;;;;;;;121.05;62.05;;;;;;;;;;5030144;28;20558;-83
2022/03/26 05:06:50;;;;;;;132.55;62.78;;;;;;;;;;5030590;28;20398;-84
2022/03/26 05:09:16;;;;;;;117.80;61.40;;;;;;;;;;5010691;28;20046;-84
2022/03/26 05:11:42;;;;;;;133.48;63.45;;;;;;;;;;5025010;28;20073;-84
2022/03/26 05:14:08;;;;;;;128.07;63.38;;;;;;;;;;5015851;28;20088;-83
2022/03/26 05:16:34;;;;;;;120.82;62.92;;;;;;;;;;5030658;28;20047;-83
2022/03/26 05:19:00;;;;;;;124.20;62.58;;;;;;;;;;5030200;28;20187;-84
2022/03/26 05:21:27;;;;;;;123.95;65.18;;;;;;;;;;5030008;28;20039;-82
2022/03/26 05:23:53;;;;;;;123.00;61.50;;;;;;;;;;5029635;28;20041;-82
2022/03/26 05:26:22;;;;;;;128.77;63.45;;;;;;;;;;5012761;28;20080;-82
2022/03/26 05:28:49;;;;;;;123.18;61.38;;;;;;;;;;5029823;28;20061;-83
2022/03/26 05:31:15;;;;;;;125.03;59.58;;;;;;;;;;5013196;28;20052;-83
2022/03/26 05:33:42;;;;;;;125.70;61.58;;;;;;;;;;5046128;28;20041;-84
2022/03/26 05:36:08;;;;;;;133.20;64.05;;;;;;;;;;5029187;28;20516;-84
2022/03/26 05:38:34;;;;;;;147.70;73.07;;;;;;;;;;5009556;28;20038;-83
2022/03/26 05:41:00;;;;;;;157.02;78.28;;;;;;;;;;5019565;28;20136;-83
2022/03/26 05:43:27;;;;;;;157.73;76.25;;;;;;;;;;5028680;28;20049;-84
2022/03/26 05:45:53;;;;;;;153.23;75.07;;;;;;;;;;5028572;28;20099;-84
2022/03/26 05:48:19;;;;;;;153.80;73.03;;;;;;;;;;5028777;28;20041;-84
2022/03/26 05:50:46;;;;;;;153.70;73.72;;;;;;;;;;5028827;28;20046;-84
2022/03/26 05:53:12;;;;;;;150.25;72.57;;;;;;;;;;5028829;28;20045;-84
2022/03/26 05:55:40;;;;;;;138.20;71.97;;;;;;;;;;5028447;28;20740;-84
2022/03/26 05:58:06;;;;;;;127.82;62.88;;;;;;;;;;5028440;28;20048;-85
2022/03/26 06:00:32;;;;;;;133.00;64.93;;;;;;;;;;5026757;28;20044;-84
2022/03/26 06:02:58;;;;;;;124.15;60.42;;;;;;;;;;5014085;28;20096;-84
2022/03/26 06:05:24;;;;;;;132.88;63.88;;;;;;;;;;5011551;28;20549;-84
2022/03/26 06:07:50;;;;;;;124.88;60.28;;;;;;;;;;5014380;28;20564;-84
2022/03/26 06:10:17;;;;;;;114.00;57.00;;;;;;;;;;5025150;28;20033;-84
2022/03/26 06:12:44;;;;;;;109.35;55.60;;;;;;;;;;5009231;28;20520;-83
2022/03/26 06:15:10;;;;;;;117.20;60.50;;;;;;;;;;5028625;28;20091;-84
2022/03/26 06:17:36;;;;;;;122.40;60.10;;;;;;;;;;5012000;28;20049;-83
2022/03/26 06:20:03;;;;;;;136.90;66.05;;;;;;;;;;5027919;28;20524;-83
2022/03/26 06:22:30;;;;;;;148.93;72.95;;;;;;;;;;5029085;28;20421;-83
2022/03/26 06:24:56;;;;;;;140.68;68.70;;;;;;;;;;5029097;28;20521;-82
2022/03/26 06:27:22;;;;;;;146.95;70.43;;;;;;;;;;5012491;28;20056;-83
2022/03/26 06:29:49;;;;;;;136.82;68.28;;;;;;;;;;5028312;28;20046;-83
2022/03/26 06:32:15;;;;;;;142.10;69.85;;;;;;;;;;5012089;28;20057;-83
2022/03/26 06:34:42;;;;;;;141.48;68.22;;;;;;;;;;5012168;28;20417;-84
2022/03/26 06:37:08;;;;;;;137.75;67.97;;;;;;;;;;5027778;28;20409;-83
2022/03/26 06:39:34;;;;;;;136.18;68.22;;;;;;;;;;5026568;28;20045;-83
2022/03/26 06:42:00;;;;;;;134.20;69.43;;;;;;;;;;5008176;28;20061;-82
2022/03/26 06:44:27;;;;;;;130.82;64.60;;;;;;;;;;5026483;28;20034;-83
2022/03/26 06:46:53;;;;;;;152.02;72.28;;;;;;;;;;5036881;28;20130;-82
2022/03/26 06:49:19;;;;;;;140.85;70.90;;;;;;;;;;5026908;28;20524;-84
2022/03/26 06:51:45;;;;;;;148.40;72.50;;;;;;;;;;5036376;28;20086;-85
2022/03/26 06:54:11;;;;;;;155.00;73.30;;;;;;;;;;5019892;28;20044;-84
2022/03/26 06:56:37;;;;;;;174.25;82.38;;;;;;;;;;5028486;28;20030;-84
2022/03/26 06:59:05;;;;;;;168.82;81.07;;;;;;;;;;5030692;28;20167;-85
2022/03/26 07:01:32;;;;;;;162.43;79.43;;;;;;;;;;5012529;28;20041;-84
2022/03/26 07:03:58;;;;;;;173.65;79.18;;;;;;;;;;5005344;28;20046;-84
2022/03/26 07:06:25;;;;;;;163.10;80.35;;;;;;;;;;5010898;28;20049;-84
2022/03/26 07:08:51;;;;;;;136.50;68.88;;;;;;;;;;5014350;28;20091;-84
2022/03/26 07:11:18;;;;;;;149.07;73.90;;;;;;;;;;5029516;28;20068;-83
2022/03/26 07:13:44;;;;;;;152.07;74.63;;;;;;;;;;5050792;28;20446;-85
2022/03/26 07:16:11;;;;;;;153.88;75.97;;;;;;;;;;5016134;28;20029;-84
2022/03/26 07:18:37;;;;;;;161.35;79.45;;;;;;;;;;5032094;28;20033;-84
2022/03/26 07:21:03;;;;;;;170.32;77.72;;;;;;;;;;5023694;28;20080;-84
2022/03/26 07:23:29;;;;;;;159.13;78.97;;;;;;;;;;5022006;28;20041;-84
2022/03/26 07:25:55;;;;;;;154.60;74.68;;;;;;;;;;5028555;28;20643;-84
2022/03/26 07:28:22;;;;;;;160.05;80.40;;;;;;;;;;5040742;28;20060;-84
2022/03/26 07:30:48;;;;;;;159.48;75.93;;;;;;;;;;5036196;28;20044;-84
2022/03/26 07:33:14;;;;;;;156.75;72.75;;;;;;;;;;5028244;28;20493;-88
2022/03/26 07:35:40;;;;;;;152.65;77.13;;;;;;;;;;5017698;28;20041;-85
2022/03/26 07:38:06;;;;;;;144.52;73.40;;;;;;;;;;5024582;28;20053;-85
2022/03/26 07:40:32;;;;;;;150.57;76.38;;;;;;;;;;5015369;28;20056;-84
2022/03/26 07:42:59;;;;;;;153.57;72.30;;;;;;;;;;5012763;28;20042;-85
2022/03/26 07:45:25;;;;;;;150.68;77.10;;;;;;;;;;5039441;28;20044;-83
2022/03/26 07:47:51;;;;;;;156.18;77.68;;;;;;;;;;5031231;28;20368;-83
2022/03/26 07:50:18;;;;;;;129.60;66.47;;;;;;;;;;5022305;28;20040;-83
2022/03/26 07:52:44;;;;;;;143.57;73.63;;;;;;;;;;5030752;28;20045;-85
2022/03/26 07:55:10;;;;;;;133.07;66.03;;;;;;;;;;5039395;28;20496;-84
2022/03/26 07:57:37;;;;;;;131.05;66.28;;;;;;;;;;5031132;28;20034;-83
2022/03/26 08:00:05;;;;;;;119.07;62.88;;;;;;;;;;5031394;28;20124;-84
2022/03/26 08:02:31;;;;;;;110.53;58.63;;;;;;;;;;5032040;28;20397;-84
2022/03/26 08:04:57;;;;;;;108.63;55.35;;;;;;;;;;5048352;28;20049;-84
2022/03/26 08:07:23;;;;;;;95.07;52.75;;;;;;;;;;5033130;28;20103;-84
2022/03/26 08:09:49;;;;;;;100.75;53.33;;;;;;;;;;5015343;28;20404;-85
2022/03/26 08:12:15;;;;;;;86.38;48.38;;;;;;;;;;5030107;28;20589;-86
2022/03/26 08:14:42;;;;;;;84.55;45.80;;;;;;;;;;5045950;28;20123;-84
2022/03/26 08:17:09;;;;;;;78.55;44.30;;;;;;;;;;5018844;28;20041;-85
2022/03/26 08:19:36;;;;;;;82.53;46.05;;;;;;;;;;5046871;28;20056;-83
2022/03/26 08:22:03;;;;;;;81.35;46.00;;;;;;;;;;5014939;28;20041;-84
2022/03/26 08:24:29;;;;;;;73.90;42.65;;;;;;;;;;5030526;28;20083;-86
2022/03/26 08:26:55;;;;;;;70.47;40.88;;;;;;;;;;5030452;28;20654;-86
2022/03/26 08:29:33;;;;;;;77.68;44.05;;;;;;;;;;5015100;28;20062;-88
2022/03/26 08:32:02;;;;;;;78.95;43.88;;;;;;;;;;4994492;28;20378;-84
2022/03/26 08:34:28;;;;;;;77.30;45.35;;;;;;;;;;5030078;28;20396;-84
2022/03/26 08:36:55;;;;;;;75.35;43.55;;;;;;;;;;5031431;28;20445;-85
2022/03/26 08:39:21;;;;;;;75.00;42.97;;;;;;;;;;5031001;28;20597;-84
2022/03/26 08:41:47;;;;;;;74.18;42.47;;;;;;;;;;5046861;28;20240;-86
2022/03/26 08:44:13;;;;;;;75.65;41.80;;;;;;;;;;5015948;28;20451;-86
2022/03/26 08:46:40;;;;;;;70.68;42.05;;;;;;;;;;5029215;28;20486;-86
2022/03/26 08:49:06;;;;;;;76.82;43.60;;;;;;;;;;5014371;28;20366;-84
2022/03/26 08:51:33;;;;;;;71.78;43.58;;;;;;;;;;5049069;28;20037;-88
2022/03/26 08:53:59;;;;;;;70.57;40.55;;;;;;;;;;5016226;28;20576;-85
2022/03/26 08:56:25;;;;;;;62.53;38.08;;;;;;;;;;5031872;28;20037;-85
2022/03/26 08:58:51;;;;;;;63.38;38.35;;;;;;;;;;5031620;28;20041;-84
2022/03/26 09:01:18;;;;;;;64.75;40.13;;;;;;;;;;5049314;28;20042;-86
2022/03/26 09:03:44;;;;;;;61.20;37.05;;;;;;;;;;5030455;28;20044;-87
2022/03/26 09:06:11;;;;;;;58.78;36.97;;;;;;;;;;5015223;28;20054;-85
2022/03/26 09:08:38;;;;;;;56.13;37.67;;;;;;;;;;5013983;28;20081;-87
2022/03/26 09:11:04;;;;;;;58.85;37.33;;;;;;;;;;5036617;28;20381;-85
2022/03/26 09:13:31;;;;;;;50.88;33.78;;;;;;;;;;5051350;28;20510;-87
2022/03/26 09:15:58;;;;;;;53.03;35.80;;;;;;;;;;5016296;28;20116;-86
2022/03/26 09:18:25;;;;;;;51.88;33.92;;;;;;;;;;5030739;28;20041;-86
2022/03/26 09:20:51;;;;;;;48.50;33.65;;;;;;;;;;5029003;28;20048;-86
2022/03/26 09:23:17;;;;;;;50.00;34.67;;;;;;;;;;5022815;28;20046;-87
2022/03/26 09:25:44;;;;;;;50.83;33.45;;;;;;;;;;5053194;28;20037;-88
2022/03/26 09:28:10;;;;;;;51.33;33.28;;;;;;;;;;5030876;28;20041;-87
2022/03/26 09:30:36;;;;;;;42.10;30.75;;;;;;;;;;5012834;28;20058;-89
2022/03/26 09:33:03;;;;;;;47.05;30.83;;;;;;;;;;5024515;28;20037;-87
2022/03/26 09:35:30;;;;;;;46.33;31.67;;;;;;;;;;5017160;28;20124;-84
2022/03/26 09:37:56;;;;;;;45.35;31.00;;;;;;;;;;5016205;28;20461;-88
2022/03/26 09:40:23;;;;;;;38.78;27.90;;;;;;;;;;5033998;28;20076;-89
2022/03/26 09:42:49;;;;;;;43.55;29.40;;;;;;;;;;5035013;28;20057;-88
2022/03/26 09:45:16;;;;;;;39.75;27.67;;;;;;;;;;5032713;28;20041;-87
2022/03/26 09:48:08;;;;;;;35.15;24.70;;;;;;;;;;5050310;28;20463;-87
2022/03/26 09:50:35;;;;;;;35.38;24.75;;;;;;;;;;5016072;28;20045;-86
2022/03/26 09:53:01;;;;;;;36.13;23.20;;;;;;;;;;5048949;28;20042;-85
2022/03/26 09:55:28;;;;;;;31.33;22.52;;;;;;;;;;5031997;28;20503;-92
2022/03/26 09:57:54;;;;;;;32.85;22.52;;;;;;;;;;5018281;28;20042;-87
2022/03/26 10:00:20;;;;;;;31.50;22.35;;;;;;;;;;5016688;28;20041;-89
2022/03/26 10:02:47;;;;;;;32.35;23.67;;;;;;;;;;5017137;28;20048;-90
2022/03/26 10:05:17;;;;;;;31.20;22.83;;;;;;;;;;5016383;28;20108;-92
2022/03/26 10:07:45;;;;;;;31.25;21.40;;;;;;;;;;5013474;28;20040;-91
2022/03/26 10:10:21;;;;;;;31.27;21.08;;;;;;;;;;5037122;28;20392;-90
2022/03/26 10:12:50;;;;;;;31.20;21.75;;;;;;;;;;5052549;28;20033;-88
2022/03/26 10:15:16;;;;;;;28.88;20.95;;;;;;;;;;5043274;28;20067;-90
2022/03/26 10:17:42;;;;;;;26.95;21.30;;;;;;;;;;5052852;28;20036;-91
2022/03/26 10:20:10;;;;;;;28.48;21.15;;;;;;;;;;5065639;28;20037;-90
2022/03/26 10:22:38;;;;;;;30.38;22.17;;;;;;;;;;5016347;28;20038;-92
2022/03/26 10:25:23;;;;;;;28.55;20.58;;;;;;;;;;5039781;28;20041;-91
2022/03/26 10:27:55;;;;;;;27.80;19.73;;;;;;;;;;5020442;28;20041;-90
2022/03/26 10:32:39;;;;;;;24.73;17.23;;;;;;;;;;5032988;28;20097;-87
2022/03/26 10:33:20;;;;;;;28.08;20.08;;;;;;;;;;5028379;28;20061;-93
2022/03/26 10:35:53;;;;;;;25.70;19.15;;;;;;;;;;5023497;28;20044;-92
2022/03/26 10:38:19;;;;;;;22.70;16.65;;;;;;;;;;5018415;28;20037;-94
2022/03/26 10:40:45;;;;;;;22.52;17.25;;;;;;;;;;5048057;28;20098;-88
2022/03/26 10:43:13;;;;;;;20.05;15.57;;;;;;;;;;5034290;28;20045;-90
2022/03/26 10:45:52;;;;;;;20.45;14.98;;;;;;;;;;5034864;28;20057;-93
2022/03/26 10:48:28;;;;;;;19.90;14.45;;;;;;;;;;5015833;28;20041;-94
2022/03/26 10:50:55;;;;;;;20.95;14.63;;;;;;;;;;5037091;28;20056;-89
2022/03/26 10:53:21;;;;;;;14.13;11.05;;;;;;;;;;5039112;28;20042;-93
2022/03/26 10:55:49;;;;;;;18.20;11.27;;;;;;;;;;5040282;28;20489;-86
2022/03/26 10:58:15;;;;;;;16.02;11.90;;;;;;;;;;5044421;28;20081;-92
2022/03/26 11:00:46;;;;;;;16.85;10.38;;;;;;;;;;5042634;28;20512;-94
2022/03/26 11:03:12;;;;;;;18.85;13.10;;;;;;;;;;5051116;28;20045;-90
2022/03/26 11:05:39;;;;;;;17.15;12.10;;;;;;;;;;5051162;28;20091;-89
2022/03/26 11:08:06;;;;;;;14.77;10.02;;;;;;;;;;5037482;28;20413;-93
2022/03/26 11:10:32;;;;;;;17.33;9.80;;;;;;;;;;5038015;28;20033;-92
2022/03/26 11:13:00;;;;;;;13.27;9.82;;;;;;;;;;5021518;28;20053;-91
2022/03/26 11:15:34;;;;;;;14.07;9.70;;;;;;;;;;5057467;28;20069;-93
2022/03/26 11:18:19;;;;;;;11.45;9.43;;;;;;;;;;5059535;28;20037;-90
2022/03/26 11:20:57;;;;;;;13.90;9.82;;;;;;;;;;5052165;28;20128;-86
2022/03/26 11:23:26;;;;;;;13.32;9.35;;;;;;;;;;5056208;28;20124;-93
2022/03/26 11:26:10;;;;;;;12.98;10.00;;;;;;;;;;5022001;28;20038;-92
2022/03/26 11:28:44;;;;;;;13.75;10.45;;;;;;;;;;5001349;28;20096;-92
2022/03/26 11:31:19;;;;;;;16.40;11.32;;;;;;;;;;5012332;28;20057;-91
2022/03/26 11:33:49;;;;;;;14.25;9.73;;;;;;;;;;5018803;28;20049;-91
2022/03/26 11:36:17;;;;;;;15.32;9.50;;;;;;;;;;5018281;28;20065;-90
2022/03/26 11:38:54;;;;;;;13.15;8.60;;;;;;;;;;5037533;28;20044;-89
2022/03/26 11:41:30;;;;;;;11.77;8.02;;;;;;;;;;5056779;28;20154;-92
2022/03/26 11:43:58;;;;;;;11.27;7.82;;;;;;;;;;5052771;28;20048;-91
2022/03/26 11:52:15;;;;;;;10.60;7.03;;;;;;;;;;5050655;28;20084;-92
2022/03/26 11:54:42;;;;;;;13.50;7.13;;;;;;;;;;5018967;28;20044;-93
2022/03/26 11:57:09;;;;;;;11.20;7.25;;;;;;;;;;5033619;28;20049;-91
2022/03/26 11:59:39;;;;;;;11.15;6.72;;;;;;;;;;5034762;28;20076;-89
2022/03/26 12:02:19;;;;;;;10.80;6.63;;;;;;;;;;5025601;28;20647;-92
2022/03/26 12:04:49;;;;;;;9.85;7.00;;;;;;;;;;5025790;28;20084;-88
2022/03/26 12:07:16;;;;;;;8.85;6.05;;;;;;;;;;5014093;28;20042;-87
2022/03/26 12:09:42;;;;;;;9.50;5.88;;;;;;;;;;5027171;28;20141;-86
2022/03/26 12:12:15;;;;;;;9.38;5.97;;;;;;;;;;5030157;28;20046;-88
2022/03/26 12:15:01;;;;;;;11.15;5.93;;;;;;;;;;5030487;28;20041;-89
2022/03/26 12:17:47;;;;;;;9.13;5.75;;;;;;;;;;4997010;28;20033;-87
2022/03/26 12:20:32;;;;;;;9.65;6.35;;;;;;;;;;5002052;28;20096;-91
2022/03/26 12:22:58;;;;;;;;;;;;;;;;;;5018348;28;20065;-89
2022/03/26 12:25:34;;;;;;;8.55;5.47;;;;;;;;;;5041765;28;20014;-89
2022/03/26 12:28:01;;;;;;;9.27;5.95;;;;;;;;;;5064043;28;20090;-86
2022/03/26 12:30:27;;;;;;;9.95;5.55;;;;;;;;;;5047305;28;20170;-92
2022/03/26 12:32:53;;;;;;;9.48;6.03;;;;;;;;;;5036776;28;20046;-92
2022/03/26 12:35:19;;;;;;;8.45;5.40;;;;;;;;;;5023810;28;20120;-88
2022/03/26 12:37:50;;;;;;;11.75;5.38;;;;;;;;;;5040694;28;20072;-88
2022/03/26 12:40:17;;;;;;;9.30;5.57;;;;;;;;;;5058818;28;20041;-90
2022/03/26 12:42:43;;;;;;;11.25;6.18;;;;;;;;;;5037376;28;20052;-89
2022/03/26 12:45:14;;;;;;;9.20;5.10;;;;;;;;;;5037944;28;20041;-92
2022/03/26 12:47:45;;;;;;;10.88;5.90;;;;;;;;;;5034843;28;20041;-90
2022/03/26 12:50:12;;;;;;;8.50;5.35;;;;;;;;;;5020490;28;20077;-88
2022/03/26 12:52:38;;;;;;;8.45;4.13;;;;;;;;;;5035989;28;20508;-90
2022/03/26 12:55:05;;;;;;;8.25;3.35;;;;;;;;;;5018964;28;20097;-89
2022/03/26 13:00:22;;;;;;;8.80;4.15;;;;;;;;;;5050176;28;20049;-88
2022/03/26 13:02:59;;;;;;;9.50;5.25;;;;;;;;;;4999963;28;20111;-93
2022/03/26 13:05:28;;;;;;;9.95;6.25;;;;;;;;;;5014314;28;20042;-89
2022/03/26 13:07:56;;;;;;;10.48;6.30;;;;;;;;;;5021021;28;20049;-87
2022/03/26 13:10:36;;;;;;;10.77;6.28;;;;;;;;;;5057661;28;20045;-87
2022/03/26 13:13:04;;;;;;;10.70;6.35;;;;;;;;;;5045935;28;20045;-91
2022/03/26 13:15:31;;;;;;;11.05;6.72;;;;;;;;;;5071705;28;20041;-90
2022/03/26 13:17:57;;;;;;;10.45;6.47;;;;;;;;;;5076645;28;20037;-92
2022/03/26 13:20:28;;;;;;;11.25;5.82;;;;;;;;;;5041175;28;20171;-90
2022/03/26 13:22:58;;;;;;;9.70;5.88;;;;;;;;;;5038953;28;20100;-89
2022/03/26 13:25:25;;;;;;;9.88;5.68;;;;;;;;;;5038617;28;20045;-92
2022/03/26 13:27:51;;;;;;;9.57;5.22;;;;;;;;;;5021329;28;20159;-90
2022/03/26 13:30:18;;;;;;;9.88;5.85;;;;;;;;;;5035396;28;20061;-92
2022/03/26 13:32:45;;;;;;;10.50;6.57;;;;;;;;;;5046737;28;20072;-93
2022/03/26 13:35:13;;;;;;;9.65;6.05;;;;;;;;;;5018274;28;20037;-92
2022/03/26 13:37:44;;;;;;;10.77;5.90;;;;;;;;;;5018465;28;20033;-87
2022/03/26 13:40:11;;;;;;;10.40;5.68;;;;;;;;;;5017732;28;20041;-89
2022/03/26 13:42:39;;;;;;;9.15;5.00;;;;;;;;;;5017352;28;20092;-87
2022/03/26 13:45:06;;;;;;;8.40;5.15;;;;;;;;;;5026365;28;20097;-92
2022/03/26 13:47:33;;;;;;;10.07;5.75;;;;;;;;;;5023254;28;20043;-88
2022/03/26 13:50:02;;;;;;;8.15;4.63;;;;;;;;;;5049170;28;20063;-89
2022/03/26 13:52:32;;;;;;;8.98;4.32;;;;;;;;;;5018812;28;20395;-90
2022/03/26 13:54:58;;;;;;;8.15;3.78;;;;;;;;;;5031416;28;20048;-90
2022/03/26 13:57:36;;;;;;;6.75;3.65;;;;;;;;;;5024454;28;20040;-87
2022/03/26 14:00:12;;;;;;;7.57;3.78;;;;;;;;;;5034285;28;20460;-88
2022/03/26 14:02:42;;;;;;;6.65;3.42;;;;;;;;;;5018000;28;20038;-91
2022/03/26 14:05:19;;;;;;;6.75;3.60;;;;;;;;;;5015037;28;20073;-89
2022/03/26 14:07:46;;;;;;;7.78;4.00;;;;;;;;;;5036184;28;20049;-90
2022/03/26 14:10:12;;;;;;;7.75;3.55;;;;;;;;;;5018787;28;20050;-92
2022/03/26 14:12:38;;;;;;;7.65;3.58;;;;;;;;;;5036690;28;20038;-88
2022/03/26 14:15:04;;;;;;;5.53;2.95;;;;;;;;;;5047354;28;20167;-90
2022/03/26 14:17:31;;;;;;;6.05;2.40;;;;;;;;;;5023447;28;20091;-88
2022/03/26 14:19:57;;;;;;;4.93;2.45;;;;;;;;;;5013605;28;20556;-93
2022/03/26 14:22:23;;;;;;;6.85;2.50;;;;;;;;;;5033850;28;20040;-91
2022/03/26 14:24:49;;;;;;;4.30;2.20;;;;;;;;;;5020766;28;20038;-92
2022/03/26 14:27:15;;;;;;;5.90;2.95;;;;;;;;;;5017477;28;20480;-90
2022/03/26 14:29:41;;;;;;;9.50;2.60;;;;;;;;;;5032406;28;20060;-91